Time;durP1;ratioP1;P1;durP2;ratioP2;P2;SDS_P1;SDS_P2;PMS_P1;PMS_P2;Temp;Humidity;BMP_temperature;BMP_pressure;BME280_temperature;BME280_humidity;BME280_pressure;Samples;Min_cycle;Max_cycle;Signal;HPM_P1;HPM_P2
2022/03/07 00:00:19;;;;;;;;;;;22.40;25.90;;;;;;5044901;28;19925;-66
2022/03/07 00:02:47;;;;;;;;;;;22.40;25.90;;;;;;5046300;28;20345;-66
2022/03/07 00:05:15;;;;;;;;;;;22.40;25.90;;;;;;5046512;28;19925;-66
2022/03/07 00:07:42;;;;;;;;;;;22.30;25.90;;;;;;5046340;28;19925;-66
2022/03/07 00:10:09;;;;;;;;;;;22.40;26.00;;;;;;5046882;28;19924;-66
2022/03/07 00:12:36;;;;;;;;;;;22.40;26.00;;;;;;5046042;28;19983;-66
2022/03/07 00:15:04;;;;;;;;;;;22.40;26.00;;;;;;5046511;28;20095;-66
2022/03/07 00:17:31;;;;;;;;;;;22.40;26.00;;;;;;5045732;28;20529;-66
2022/03/07 00:20:01;;;;;;;;;;;22.30;26.00;;;;;;5046500;28;19929;-66
2022/03/07 00:22:28;;;;;;;;;;;22.30;26.00;;;;;;5077986;28;20216;-66
2022/03/07 00:24:55;;;;;;;;;;;22.30;26.00;;;;;;5046531;28;19994;-66
2022/03/07 00:27:22;;;;;;;;;;;22.30;26.00;;;;;;5045732;28;19929;-66
2022/03/07 00:29:49;;;;;;;;;;;22.30;26.00;;;;;;5046483;28;19925;-66
2022/03/07 00:32:16;;;;;;;;;;;22.30;26.00;;;;;;5045743;28;20440;-66
2022/03/07 00:34:43;;;;;;;;;;;22.30;26.00;;;;;;5045545;28;20454;-66
2022/03/07 00:37:10;;;;;;;;;;;22.30;26.50;;;;;;5045883;28;19925;-66
2022/03/07 00:39:37;;;;;;;;;;;22.30;26.10;;;;;;5046076;28;19952;-66
2022/03/07 00:42:06;;;;;;;;;;;22.30;26.00;;;;;;5046026;28;19929;-66
2022/03/07 00:44:33;;;;;;;;;;;22.30;26.10;;;;;;5046097;28;19928;-66
2022/03/07 00:47:00;;;;;;;;;;;22.30;26.10;;;;;;5045741;28;20375;-66
2022/03/07 00:49:27;;;;;;;;;;;22.30;26.10;;;;;;5046133;28;19998;-66
2022/03/07 00:51:55;;;;;;;;;;;22.30;26.10;;;;;;5045109;28;19929;-66
2022/03/07 00:54:22;;;;;;;;;;;22.30;26.10;;;;;;5046145;28;19978;-66
2022/03/07 00:56:49;;;;;;;;;;;22.30;26.10;;;;;;5045552;28;19928;-66
2022/03/07 00:59:16;;;;;;;;;;;22.30;26.10;;;;;;5045894;28;20357;-66
2022/03/07 01:01:43;;;;;;;;;;;22.30;26.10;;;;;;5045604;28;19987;-66
2022/03/07 01:04:13;;;;;;;;;;;22.20;26.10;;;;;;5046013;28;19925;-66
2022/03/07 01:06:40;;;;;;;;;;;22.20;26.20;;;;;;5045723;28;20168;-66
2022/03/07 01:09:07;;;;;;;;;;;22.20;26.20;;;;;;5045490;28;19963;-66
2022/03/07 01:11:35;;;;;;;;;;;22.20;26.20;;;;;;5045278;28;19978;-66
2022/03/07 01:14:02;;;;;;;;;;;22.20;26.20;;;;;;5046087;28;19971;-66
2022/03/07 01:16:29;;;;;;;;;;;22.20;26.20;;;;;;5045380;28;19925;-66
2022/03/07 01:18:56;;;;;;;;;;;22.20;26.20;;;;;;5045868;28;19925;-65
2022/03/07 01:21:23;;;;;;;;;;;22.20;26.20;;;;;;5045521;28;20015;-66
2022/03/07 01:24:08;;;;;;;;;;;22.20;26.20;;;;;;5045489;28;20160;-66
2022/03/07 01:26:36;;;;;;;;;;;22.20;26.20;;;;;;5045374;28;20257;-66
2022/03/07 01:29:03;;;;;;;;;;;22.20;26.20;;;;;;5045694;28;19924;-66
2022/03/07 01:31:30;;;;;;;;;;;22.20;26.20;;;;;;5045613;28;19925;-66
2022/03/07 01:33:57;;;;;;;;;;;22.20;26.30;;;;;;5045181;28;19978;-66
2022/03/07 01:36:24;;;;;;;;;;;22.20;26.70;;;;;;5045447;28;19925;-66
2022/03/07 01:38:51;;;;;;;;;;;22.20;26.30;;;;;;5045406;28;19924;-66
2022/03/07 01:41:18;;;;;;;;;;;22.20;26.30;;;;;;5045952;28;19929;-66
2022/03/07 01:43:45;;;;;;;;;;;22.20;26.30;;;;;;5044822;28;19929;-66
2022/03/07 01:46:12;;;;;;;;;;;22.20;26.30;;;;;;5047463;28;19928;-66
2022/03/07 01:48:39;;;;;;;;;;;22.20;26.30;;;;;;5049191;28;19924;-66
2022/03/07 01:51:07;;;;;;;;;;;22.20;26.30;;;;;;5048831;28;19929;-66
2022/03/07 01:53:34;;;;;;;;;;;22.20;26.30;;;;;;5048690;28;19925;-66
2022/03/07 01:56:01;;;;;;;;;;;22.20;26.30;;;;;;5049130;28;19928;-65
2022/03/07 01:58:28;;;;;;;;;;;22.20;26.30;;;;;;5048563;28;20353;-66
2022/03/07 02:00:55;;;;;;;;;;;22.20;26.30;;;;;;5048422;28;20336;-66
2022/03/07 02:03:22;;;;;;;;;;;22.20;26.30;;;;;;5048609;28;20263;-66
2022/03/07 02:05:50;;;;;;;;;;;22.20;26.30;;;;;;5049098;28;19925;-66
2022/03/07 02:08:18;;;;;;;;;;;22.20;26.40;;;;;;5048436;28;20370;-66
2022/03/07 02:10:44;;;;;;;;;;;22.20;26.40;;;;;;5048802;28;19924;-65
2022/03/07 02:13:12;;;;;;;;;;;22.20;26.40;;;;;;5048426;28;19977;-66
2022/03/07 02:15:39;;;;;;;;;;;22.20;26.40;;;;;;5048391;28;20389;-66
2022/03/07 02:18:06;;;;;;;;;;;22.20;26.40;;;;;;5048406;28;20456;-66
2022/03/07 02:20:35;;;;;;;;;;;22.10;26.40;;;;;;5048682;28;19935;-66
2022/03/07 02:23:02;;;;;;;;;;;22.10;26.40;;;;;;5047886;28;19929;-65
2022/03/07 02:25:29;;;;;;;;;;;22.10;26.40;;;;;;5048270;28;19972;-66
2022/03/07 02:27:56;;;;;;;;;;;22.10;26.40;;;;;;5048424;28;19925;-66
2022/03/07 02:30:23;;;;;;;;;;;22.10;26.40;;;;;;5048556;28;19970;-66
2022/03/07 02:32:51;;;;;;;;;;;22.10;26.40;;;;;;5048045;28;20255;-66
2022/03/07 02:35:18;;;;;;;;;;;22.10;26.40;;;;;;5049085;28;19925;-66
2022/03/07 02:37:45;;;;;;;;;;;22.10;26.40;;;;;;5048060;28;20618;-66
2022/03/07 02:40:12;;;;;;;;;;;22.10;26.40;;;;;;5080072;28;20206;-66
2022/03/07 02:42:55;;;;;;;;;;;22.10;26.40;;;;;;5047770;28;19935;-66
2022/03/07 02:45:22;;;;;;;;;;;22.10;26.40;;;;;;5047955;28;19929;-66
2022/03/07 02:47:49;;;;;;;;;;;22.10;26.40;;;;;;5047891;28;19929;-66
2022/03/07 02:50:16;;;;;;;;;;;22.10;26.50;;;;;;5048174;28;19925;-66
2022/03/07 02:52:44;;;;;;;;;;;22.10;26.50;;;;;;5047467;28;20397;-66
2022/03/07 02:55:11;;;;;;;;;;;22.10;26.50;;;;;;5047617;28;20253;-66
2022/03/07 02:57:38;;;;;;;;;;;22.10;26.50;;;;;;5047026;28;20197;-66
2022/03/07 03:00:05;;;;;;;;;;;22.10;26.50;;;;;;5047954;28;19948;-66
2022/03/07 03:02:32;;;;;;;;;;;22.10;26.50;;;;;;5047100;28;20249;-66
2022/03/07 03:04:59;;;;;;;;;;;22.10;26.50;;;;;;5047691;28;19983;-66
2022/03/07 03:07:26;;;;;;;;;;;22.00;26.50;;;;;;5079330;28;19933;-66
2022/03/07 03:09:53;;;;;;;;;;;22.10;26.50;;;;;;5047079;28;19991;-66
2022/03/07 03:12:24;;;;;;;;;;;22.10;26.50;;;;;;5047297;28;19948;-66
2022/03/07 03:14:51;;;;;;;;;;;22.00;27.00;;;;;;5047767;28;19991;-65
2022/03/07 03:17:18;;;;;;;;;;;22.10;26.50;;;;;;5046938;28;20015;-66
2022/03/07 03:19:45;;;;;;;;;;;22.10;26.60;;;;;;5048137;28;20364;-66
2022/03/07 03:22:12;;;;;;;;;;;22.10;26.50;;;;;;5047081;28;20321;-66
2022/03/07 03:24:39;;;;;;;;;;;22.10;26.50;;;;;;5047273;28;20177;-65
2022/03/07 03:27:06;;;;;;;;;;;22.10;26.60;;;;;;5046892;28;19932;-66
2022/03/07 03:29:33;;;;;;;;;;;22.10;26.60;;;;;;5047244;28;20390;-66
2022/03/07 03:32:00;;;;;;;;;;;22.10;26.60;;;;;;5046932;28;19931;-66
2022/03/07 03:34:27;;;;;;;;;;;22.10;26.60;;;;;;5046833;28;19932;-66
2022/03/07 03:36:56;;;;;;;;;;;22.00;26.50;;;;;;5046694;28;19935;-66
2022/03/07 03:39:23;;;;;;;;;;;22.00;26.50;;;;;;5047495;28;19933;-66
2022/03/07 03:41:50;;;;;;;;;;;22.00;26.60;;;;;;5046823;28;19978;-66
2022/03/07 03:44:17;;;;;;;;;;;22.00;26.60;;;;;;5047145;28;19990;-66
2022/03/07 03:46:44;;;;;;;;;;;22.00;26.60;;;;;;5046399;28;20267;-65
2022/03/07 03:49:11;;;;;;;;;;;22.00;26.60;;;;;;5046979;28;20336;-66
2022/03/07 03:51:38;;;;;;;;;;;22.00;26.60;;;;;;5046187;28;20466;-66
2022/03/07 03:54:05;;;;;;;;;;;22.00;26.60;;;;;;5046799;28;19970;-66
2022/03/07 03:56:32;;;;;;;;;;;22.00;26.60;;;;;;5046592;28;19925;-66
2022/03/07 03:59:08;;;;;;;;;;;22.00;26.60;;;;;;5046037;28;20363;-66
2022/03/07 04:01:35;;;;;;;;;;;22.00;26.70;;;;;;5045986;28;19925;-66
2022/03/07 04:04:05;;;;;;;;;;;22.00;26.70;;;;;;5077907;28;19976;-66
2022/03/07 04:06:32;;;;;;;;;;;22.00;26.70;;;;;;5046614;28;19932;-66
2022/03/07 04:08:59;;;;;;;;;;;22.00;26.70;;;;;;5046121;28;19981;-66
2022/03/07 04:11:26;;;;;;;;;;;22.00;26.70;;;;;;5046468;28;19929;-66
2022/03/07 04:13:53;;;;;;;;;;;21.90;26.60;;;;;;5046595;28;19951;-65
2022/03/07 04:16:20;;;;;;;;;;;22.00;26.70;;;;;;5046454;28;19925;-66
2022/03/07 04:18:47;;;;;;;;;;;22.00;26.70;;;;;;5046110;28;20441;-65
2022/03/07 04:21:14;;;;;;;;;;;22.00;26.70;;;;;;5046124;28;20390;-66
2022/03/07 04:23:41;;;;;;;;;;;21.90;26.70;;;;;;5045721;28;19924;-66
2022/03/07 04:26:09;;;;;;;;;;;22.00;26.70;;;;;;5046300;28;19960;-66
2022/03/07 04:28:36;;;;;;;;;;;21.90;26.70;;;;;;5045882;28;19929;-66
2022/03/07 04:31:03;;;;;;;;;;;21.90;26.70;;;;;;5046827;28;19972;-66
2022/03/07 04:33:29;;;;;;;;;;;21.90;26.70;;;;;;5045997;28;19932;-66
2022/03/07 04:35:57;;;;;;;;;;;21.90;26.70;;;;;;5041151;28;20389;-66
2022/03/07 04:38:26;;;;;;;;;;;21.90;26.70;;;;;;5035950;28;20378;-67
2022/03/07 04:40:53;;;;;;;;;;;21.90;26.70;;;;;;5034637;28;19999;-66
2022/03/07 04:43:21;;;;;;;;;;;21.90;26.70;;;;;;5033638;28;19925;-66
2022/03/07 04:45:48;;;;;;;;;;;21.90;26.70;;;;;;5034950;28;20479;-66
2022/03/07 04:48:15;;;;;;;;;;;21.90;26.70;;;;;;5037380;28;19925;-66
2022/03/07 04:50:42;;;;;;;;;;;21.90;26.70;;;;;;5029801;28;19925;-66
2022/03/07 04:53:09;;;;;;;;;;;21.90;26.70;;;;;;5025888;28;20202;-66
2022/03/07 04:55:36;;;;;;;;;;;21.90;26.80;;;;;;5026480;28;19987;-66
2022/03/07 04:58:04;;;;;;;;;;;21.90;26.80;;;;;;5025860;28;19983;-66
2022/03/07 05:00:31;;;;;;;;;;;21.90;26.80;;;;;;5027840;28;19925;-66
2022/03/07 05:02:58;;;;;;;;;;;21.90;26.80;;;;;;5044855;28;19925;-66
2022/03/07 05:05:26;;;;;;;;;;;21.90;26.80;;;;;;5045317;28;20463;-66
2022/03/07 05:07:53;;;;;;;;;;;21.90;26.80;;;;;;5044975;28;19929;-66
2022/03/07 05:10:20;;;;;;;;;;;21.90;26.80;;;;;;5045600;28;20413;-66
2022/03/07 05:12:48;;;;;;;;;;;21.90;26.80;;;;;;5045772;28;19925;-66
2022/03/07 05:15:15;;;;;;;;;;;21.90;26.80;;;;;;5046399;28;19964;-66
2022/03/07 05:17:43;;;;;;;;;;;21.90;26.80;;;;;;5041170;28;19968;-66
2022/03/07 05:20:11;;;;;;;;;;;21.90;26.80;;;;;;5036546;28;19925;-66
2022/03/07 05:22:39;;;;;;;;;;;21.90;26.80;;;;;;5045219;28;20006;-66
2022/03/07 05:25:06;;;;;;;;;;;21.90;26.80;;;;;;5045703;28;19976;-66
2022/03/07 05:27:33;;;;;;;;;;;21.90;26.80;;;;;;5039857;28;19975;-67
2022/03/07 05:30:00;;;;;;;;;;;21.90;26.80;;;;;;5049825;28;19951;-66
2022/03/07 05:32:27;;;;;;;;;;;21.90;26.80;;;;;;5046587;28;19978;-66
2022/03/07 05:34:54;;;;;;;;;;;21.90;26.80;;;;;;5041048;28;19952;-67
2022/03/07 05:37:21;;;;;;;;;;;21.90;26.80;;;;;;5038114;28;19929;-67
2022/03/07 05:39:48;;;;;;;;;;;21.90;26.80;;;;;;5041270;28;19929;-66
2022/03/07 05:42:15;;;;;;;;;;;21.90;26.80;;;;;;5034723;28;19925;-67
2022/03/07 05:44:42;;;;;;;;;;;21.90;26.80;;;;;;5044970;28;19925;-66
2022/03/07 05:47:09;;;;;;;;;;;21.90;26.80;;;;;;5047004;28;20124;-67
2022/03/07 05:49:36;;;;;;;;;;;21.90;26.90;;;;;;5048568;28;19928;-66
2022/03/07 05:52:04;;;;;;;;;;;21.90;26.90;;;;;;5048958;28;20026;-67
2022/03/07 05:54:31;;;;;;;;;;;21.90;26.90;;;;;;5046897;28;19924;-66
2022/03/07 05:56:58;;;;;;;;;;;21.90;26.80;;;;;;5048972;28;20431;-66
2022/03/07 05:59:25;;;;;;;;;;;21.90;26.80;;;;;;5047503;28;19964;-67
2022/03/07 06:01:52;;;;;;;;;;;21.80;26.80;;;;;;5043742;28;19977;-66
2022/03/07 06:04:20;;;;;;;;;;;21.90;26.90;;;;;;5047862;28;19925;-66
2022/03/07 06:06:46;;;;;;;;;;;21.90;26.80;;;;;;5043801;28;19986;-66
2022/03/07 06:09:13;;;;;;;;;;;21.90;26.80;;;;;;5047597;28;20385;-66
2022/03/07 06:11:41;;;;;;;;;;;21.90;26.60;;;;;;5050940;28;20447;-66
2022/03/07 06:14:08;;;;;;;;;;;21.90;26.60;;;;;;5048754;28;19925;-67
2022/03/07 06:16:35;;;;;;;;;;;21.90;26.60;;;;;;5081380;28;20301;-67
2022/03/07 06:19:02;;;;;;;;;;;21.80;26.50;;;;;;5047021;28;19933;-67
2022/03/07 06:21:29;;;;;;;;;;;21.90;26.50;;;;;;5051894;28;19925;-67
2022/03/07 06:27:47;;;;;;;;;;;21.90;26.30;;;;;;5044042;28;19923;-68
2022/03/07 06:30:14;;;;;;;;;;;22.00;26.20;;;;;;5060240;28;19964;-67
2022/03/07 06:32:41;;;;;;;;;;;22.00;26.10;;;;;;5060094;28;19939;-67
2022/03/07 06:35:12;;;;;;;;;;;22.10;26.00;;;;;;5046457;28;20294;-69
2022/03/07 06:37:45;;;;;;;;;;;22.10;26.00;;;;;;5040932;28;19979;-67
2022/03/07 06:40:12;;;;;;;;;;;22.20;26.20;;;;;;5044455;28;20370;-66
2022/03/07 06:42:39;;;;;;;;;;;22.20;26.00;;;;;;5047352;28;19924;-66
2022/03/07 06:45:06;;;;;;;;;;;22.30;25.90;;;;;;5045162;28;19947;-67
2022/03/07 06:47:33;;;;;;;;;;;22.30;25.80;;;;;;5036460;28;20531;-67
2022/03/07 06:53:22;;;;;;;;;;;22.50;25.70;;;;;;5048277;28;19920;-65
2022/03/07 06:55:49;;;;;;;;;;;22.60;25.70;;;;;;5048846;28;19989;-64
2022/03/07 06:58:16;;;;;;;;;;;22.60;25.60;;;;;;5079310;28;20356;-69
2022/03/07 07:00:43;;;;;;;;;;;22.70;25.60;;;;;;5044151;28;20271;-67
2022/03/07 07:03:11;;;;;;;;;;;22.70;26.20;;;;;;5048919;28;20015;-67
2022/03/07 07:05:38;;;;;;;;;;;22.80;26.40;;;;;;5049380;28;20027;-69
2022/03/07 07:08:05;;;;;;;;;;;22.80;26.10;;;;;;5050844;28;20040;-65
2022/03/07 07:10:32;;;;;;;;;;;22.90;26.20;;;;;;5048943;28;19929;-65
2022/03/07 07:12:59;;;;;;;;;;;23.00;26.70;;;;;;5050173;28;20300;-67
2022/03/07 07:15:26;;;;;;;;;;;23.00;26.80;;;;;;5048206;28;19925;-68
2022/03/07 07:17:53;;;;;;;;;;;23.10;26.80;;;;;;5049637;28;19972;-68
2022/03/07 07:20:20;;;;;;;;;;;23.10;26.40;;;;;;5047005;28;19936;-69
2022/03/07 07:22:47;;;;;;;;;;;23.20;26.50;;;;;;5040532;28;19935;-68
2022/03/07 07:25:14;;;;;;;;;;;23.30;26.80;;;;;;5047409;28;19933;-69
2022/03/07 07:27:42;;;;;;;;;;;23.30;26.70;;;;;;5043081;28;19924;-69
2022/03/07 07:30:09;;;;;;;;;;;23.40;26.60;;;;;;5045255;28;19978;-70
2022/03/07 07:32:38;;;;;;;;;;;23.40;26.60;;;;;;5045170;28;19937;-67
2022/03/07 07:35:07;;;;;;;;;;;23.50;26.50;;;;;;5055860;28;20364;-68
2022/03/07 07:37:34;;;;;;;;;;;23.50;26.40;;;;;;5048384;28;20350;-64
2022/03/07 07:40:03;;;;;;;;;;;23.60;26.60;;;;;;5050019;28;19990;-64
2022/03/07 07:42:30;;;;;;;;;;;23.60;26.30;;;;;;5043173;28;19983;-66
2022/03/07 07:44:57;;;;;;;;;;;23.70;26.30;;;;;;5044235;28;19951;-65
2022/03/07 07:47:24;;;;;;;;;;;23.70;26.00;;;;;;5042681;28;19932;-69
2022/03/07 07:49:51;;;;;;;;;;;23.80;25.90;;;;;;5045984;28;19929;-65
2022/03/07 07:55:29;;;;;;;;;;;23.90;25.90;;;;;;5047244;28;20014;-65
2022/03/07 07:57:57;;;;;;;;;;;24.00;25.70;;;;;;5048853;28;20370;-66
2022/03/07 08:00:24;;;;;;;;;;;24.00;25.70;;;;;;5047468;28;19974;-65
2022/03/07 08:02:51;;;;;;;;;;;24.00;25.70;;;;;;5047599;28;20447;-64
2022/03/07 08:05:19;;;;;;;;;;;24.10;25.60;;;;;;5047620;28;20350;-70
2022/03/07 08:07:46;;;;;;;;;;;24.20;25.50;;;;;;5036885;28;20394;-68
2022/03/07 08:10:14;;;;;;;;;;;24.10;25.40;;;;;;5045666;28;19924;-67
2022/03/07 08:12:44;;;;;;;;;;;24.20;25.10;;;;;;5048038;28;20412;-66
2022/03/07 08:15:17;;;;;;;;;;;24.20;25.10;;;;;;5042969;28;20047;-66
2022/03/07 08:17:49;;;;;;;;;;;24.30;25.00;;;;;;5042270;28;20023;-66
2022/03/07 08:20:18;;;;;;;;;;;24.30;25.00;;;;;;5045660;28;19925;-66
2022/03/07 08:22:45;;;;;;;;;;;24.30;25.00;;;;;;5046787;28;19986;-66
2022/03/07 08:25:12;;;;;;;;;;;24.40;24.90;;;;;;5042792;28;19924;-64
2022/03/07 08:27:40;;;;;;;;;;;24.30;24.60;;;;;;5037522;28;20397;-67
2022/03/07 08:30:08;;;;;;;;;;;24.40;24.70;;;;;;5042006;28;19925;-67
2022/03/07 08:32:36;;;;;;;;;;;24.30;24.50;;;;;;5048953;28;19970;-66
2022/03/07 08:35:04;;;;;;;;;;;24.30;24.80;;;;;;5044718;28;20329;-66
2022/03/07 08:37:32;;;;;;;;;;;24.40;24.70;;;;;;5044951;28;19925;-66
2022/03/07 08:40:00;;;;;;;;;;;24.40;24.70;;;;;;5045027;28;20000;-67
2022/03/07 08:42:27;;;;;;;;;;;24.40;24.50;;;;;;5049042;28;19979;-67
2022/03/07 08:44:54;;;;;;;;;;;24.30;24.30;;;;;;5047523;28;20106;-65
2022/03/07 08:47:21;;;;;;;;;;;24.30;24.40;;;;;;5045793;28;20356;-69
2022/03/07 08:49:48;;;;;;;;;;;24.40;24.40;;;;;;5043901;28;19951;-65
2022/03/07 08:52:15;;;;;;;;;;;24.30;24.50;;;;;;5048100;28;19928;-66
2022/03/07 08:54:43;;;;;;;;;;;24.30;24.30;;;;;;5048872;28;19929;-65
2022/03/07 08:57:10;;;;;;;;;;;24.30;24.10;;;;;;5050022;28;20342;-64
2022/03/07 08:59:37;;;;;;;;;;;24.30;24.10;;;;;;5046000;28;19925;-65
2022/03/07 09:02:04;;;;;;;;;;;24.30;24.10;;;;;;5052231;28;19936;-67
2022/03/07 09:04:32;;;;;;;;;;;24.30;24.10;;;;;;5052268;28;20404;-67
2022/03/07 09:06:59;;;;;;;;;;;24.40;24.30;;;;;;5047582;28;19925;-66
2022/03/07 09:09:26;;;;;;;;;;;24.40;24.00;;;;;;5043539;28;20012;-67
2022/03/07 09:11:59;;;;;;;;;;;24.40;24.30;;;;;;5052371;28;19925;-67
2022/03/07 09:14:26;;;;;;;;;;;24.50;24.20;;;;;;5052413;28;19978;-66
2022/03/07 09:16:53;;;;;;;;;;;24.50;24.00;;;;;;5052056;28;19924;-67
2022/03/07 09:19:20;;;;;;;;;;;24.50;24.00;;;;;;5048581;28;19929;-67
2022/03/07 09:21:47;;;;;;;;;;;24.60;24.00;;;;;;5051710;28;19925;-67
2022/03/07 09:24:15;;;;;;;;;;;24.60;24.10;;;;;;5051456;28;20019;-66
2022/03/07 09:26:42;;;;;;;;;;;24.60;23.90;;;;;;5051530;28;19955;-67
2022/03/07 09:29:10;;;;;;;;;;;24.70;23.70;;;;;;5045264;28;19979;-67
2022/03/07 09:31:37;;;;;;;;;;;24.70;23.60;;;;;;5050511;28;20374;-67
2022/03/07 09:34:05;;;;;;;;;;;24.70;23.50;;;;;;5051955;28;19932;-67
2022/03/07 09:36:32;;;;;;;;;;;24.70;23.40;;;;;;5050285;28;19979;-67
2022/03/07 09:38:59;;;;;;;;;;;24.80;23.30;;;;;;5047846;28;19933;-67
2022/03/07 09:41:27;;;;;;;;;;;24.80;23.50;;;;;;5050967;28;20300;-67
2022/03/07 09:43:54;;;;;;;;;;;24.80;23.10;;;;;;5047532;28;19925;-67
2022/03/07 09:46:21;;;;;;;;;;;24.80;23.20;;;;;;5051714;28;20332;-68
2022/03/07 09:48:48;;;;;;;;;;;24.80;23.20;;;;;;5045987;28;19932;-66
2022/03/07 09:51:15;;;;;;;;;;;24.90;23.30;;;;;;5049365;28;20030;-67
2022/03/07 09:53:43;;;;;;;;;;;24.90;23.40;;;;;;5083176;28;20340;-67
2022/03/07 09:56:10;;;;;;;;;;;24.90;23.20;;;;;;5048848;28;19924;-67
2022/03/07 09:58:37;;;;;;;;;;;24.90;23.20;;;;;;5044659;28;19933;-67
2022/03/07 10:01:05;;;;;;;;;;;24.90;23.00;;;;;;5050782;28;20005;-67
2022/03/07 10:03:32;;;;;;;;;;;25.00;22.90;;;;;;5049992;28;19972;-66
2022/03/07 10:05:59;;;;;;;;;;;25.00;23.00;;;;;;5049687;28;19925;-67
2022/03/07 10:08:28;;;;;;;;;;;25.00;23.20;;;;;;5046785;28;19979;-66
2022/03/07 10:10:56;;;;;;;;;;;25.10;23.00;;;;;;5049534;28;19925;-66
2022/03/07 10:13:24;;;;;;;;;;;25.10;23.00;;;;;;5049412;28;20408;-67
2022/03/07 10:15:55;;;;;;;;;;;25.10;23.00;;;;;;5048777;28;19929;-70
2022/03/07 10:18:23;;;;;;;;;;;25.10;22.70;;;;;;5049615;28;19931;-66
2022/03/07 10:20:51;;;;;;;;;;;25.20;23.20;;;;;;5048629;28;19936;-66
2022/03/07 10:23:19;;;;;;;;;;;25.20;23.00;;;;;;5049518;28;19924;-66
2022/03/07 10:25:46;;;;;;;;;;;25.20;22.80;;;;;;5050391;28;19936;-66
2022/03/07 10:28:14;;;;;;;;;;;25.30;22.70;;;;;;5049982;28;20382;-66
2022/03/07 10:30:41;;;;;;;;;;;25.20;22.40;;;;;;5046211;28;19933;-66
2022/03/07 10:33:09;;;;;;;;;;;25.30;22.90;;;;;;5042730;28;20357;-67
2022/03/07 10:35:41;;;;;;;;;;;25.30;22.70;;;;;;5048959;28;19937;-67
2022/03/07 10:38:16;;;;;;;;;;;25.40;23.00;;;;;;5041152;28;20023;-66
2022/03/07 10:40:54;;;;;;;;;;;25.40;22.60;;;;;;5047501;28;19948;-66
2022/03/07 10:43:22;;;;;;;;;;;25.40;22.40;;;;;;5050525;28;19925;-69
2022/03/07 10:45:51;;;;;;;;;;;25.50;22.30;;;;;;5045917;28;19933;-69
2022/03/07 10:48:19;;;;;;;;;;;25.50;22.30;;;;;;5047046;28;20004;-68
2022/03/07 10:50:50;;;;;;;;;;;25.50;22.40;;;;;;5047161;28;19986;-68
2022/03/07 10:53:18;;;;;;;;;;;25.50;22.70;;;;;;5043169;28;20370;-69
2022/03/07 10:55:52;;;;;;;;;;;25.60;22.40;;;;;;5046666;28;19933;-67
2022/03/07 10:58:20;;;;;;;;;;;25.60;22.60;;;;;;5044010;28;19971;-68
2022/03/07 11:00:52;;;;;;;;;;;25.70;22.60;;;;;;5044633;28;19971;-68
2022/03/07 11:03:23;;;;;;;;;;;25.70;22.50;;;;;;5046341;28;19991;-68
2022/03/07 11:05:51;;;;;;;;;;;25.70;22.20;;;;;;5042447;28;20002;-68
2022/03/07 11:08:20;;;;;;;;;;;25.60;22.10;;;;;;5044746;28;20039;-68
2022/03/07 11:10:48;;;;;;;;;;;25.60;22.00;;;;;;5044293;28;19925;-67
2022/03/07 11:13:16;;;;;;;;;;;25.50;22.00;;;;;;5045589;28;20306;-68
2022/03/07 11:15:44;;;;;;;;;;;25.50;21.90;;;;;;5046126;28;19933;-68
2022/03/07 11:18:12;;;;;;;;;;;25.50;21.90;;;;;;5046025;28;19940;-68
2022/03/07 11:20:41;;;;;;;;;;;25.50;22.10;;;;;;5046252;28;19933;-68
2022/03/07 11:23:11;;;;;;;;;;;25.40;21.90;;;;;;5043316;28;20389;-68
2022/03/07 11:25:39;;;;;;;;;;;25.40;21.80;;;;;;5046267;28;19929;-67
2022/03/07 11:28:06;;;;;;;;;;;25.40;21.70;;;;;;5040044;28;19933;-69
2022/03/07 11:30:42;;;;;;;;;;;25.40;21.80;;;;;;5050876;28;19928;-68
2022/03/07 11:33:16;;;;;;;;;;;25.40;21.70;;;;;;5040781;28;19932;-69
2022/03/07 11:35:47;;;;;;;;;;;25.40;21.70;;;;;;5041840;28;19929;-69
2022/03/07 11:38:20;;;;;;;;;;;25.30;21.50;;;;;;5044747;28;19935;-67
2022/03/07 11:41:07;;;;;;;;;;;25.30;21.50;;;;;;5046449;28;20417;-68
2022/03/07 11:43:35;;;;;;;;;;;25.30;21.50;;;;;;5041287;28;19928;-68
2022/03/07 11:46:03;;;;;;;;;;;25.20;21.40;;;;;;5044694;28;19990;-68
2022/03/07 11:48:31;;;;;;;;;;;25.20;21.40;;;;;;5041289;28;19983;-68
2022/03/07 11:50:59;;;;;;;;;;;25.20;21.50;;;;;;5042584;28;19933;-68
2022/03/07 11:53:27;;;;;;;;;;;25.20;21.40;;;;;;5038610;28;21766;-68
2022/03/07 11:55:56;;;;;;;;;;;25.20;21.40;;;;;;5037745;28;19932;-66
2022/03/07 11:58:35;;;;;;;;;;;25.20;21.40;;;;;;5039293;28;20031;-67
2022/03/07 12:01:12;;;;;;;;;;;25.10;21.40;;;;;;5046533;28;20356;-66
2022/03/07 12:03:39;;;;;;;;;;;25.20;21.40;;;;;;5039239;28;20023;-67
2022/03/07 12:06:11;;;;;;;;;;;25.10;21.30;;;;;;5039871;28;20486;-67
2022/03/07 12:08:49;;;;;;;;;;;25.10;21.30;;;;;;5039251;28;19987;-67
2022/03/07 12:11:31;;;;;;;;;;;25.10;21.30;;;;;;5044552;28;19990;-69
2022/03/07 12:14:03;;;;;;;;;;;25.10;21.30;;;;;;5042052;28;19991;-67
2022/03/07 12:16:35;;;;;;;;;;;25.00;21.30;;;;;;5077651;28;19982;-68
2022/03/07 12:19:11;;;;;;;;;;;25.00;21.30;;;;;;5042934;28;20354;-68
2022/03/07 12:21:43;;;;;;;;;;;25.00;21.30;;;;;;5034780;28;19929;-68
2022/03/07 12:24:11;;;;;;;;;;;25.00;21.30;;;;;;5042243;28;19940;-68
2022/03/07 12:26:44;;;;;;;;;;;24.90;21.20;;;;;;5042966;28;19924;-68
2022/03/07 12:29:11;;;;;;;;;;;24.90;21.30;;;;;;5042237;28;20386;-68
2022/03/07 12:31:38;;;;;;;;;;;24.90;21.40;;;;;;5044899;28;19932;-66
2022/03/07 12:34:07;;;;;;;;;;;24.90;21.50;;;;;;5038964;28;19925;-67
2022/03/07 12:36:34;;;;;;;;;;;24.90;21.60;;;;;;5037874;28;19925;-64
2022/03/07 12:39:01;;;;;;;;;;;24.90;21.60;;;;;;5039806;28;19925;-68
2022/03/07 12:41:32;;;;;;;;;;;24.90;21.60;;;;;;5048410;28;20298;-65
2022/03/07 12:44:00;;;;;;;;;;;24.90;21.80;;;;;;5041152;28;19978;-68
2022/03/07 12:46:27;;;;;;;;;;;24.90;22.00;;;;;;5043910;28;19935;-67
2022/03/07 12:52:26;;;;;;;;;;;24.90;22.10;;;;;;5047847;28;19928;-67
2022/03/07 12:54:53;;;;;;;;;;;24.90;22.10;;;;;;5044029;28;19925;-69
2022/03/07 12:57:21;;;;;;;;;;;24.90;22.00;;;;;;5043400;28;19982;-69
2022/03/07 12:59:59;;;;;;;;;;;25.00;22.00;;;;;;5049726;28;19924;-68
2022/03/07 13:02:33;;;;;;;;;;;24.90;21.80;;;;;;5068113;28;19954;-65
2022/03/07 13:05:01;;;;;;;;;;;24.90;21.90;;;;;;5043503;28;19925;-68
2022/03/07 13:07:28;;;;;;;;;;;25.00;21.90;;;;;;5042929;28;19937;-67
2022/03/07 13:09:55;;;;;;;;;;;25.00;21.90;;;;;;5048156;28;20359;-69
2022/03/07 13:12:22;;;;;;;;;;;25.00;21.90;;;;;;5049125;28;20442;-70
2022/03/07 13:18:21;;;;;;;;;;;25.00;21.90;;;;;;5042661;28;19970;-67
2022/03/07 13:20:48;;;;;;;;;;;25.00;22.00;;;;;;5048421;28;20332;-66
2022/03/07 13:23:17;;;;;;;;;;;25.00;22.00;;;;;;5046633;28;19982;-67
2022/03/07 13:25:45;;;;;;;;;;;25.00;22.10;;;;;;5046511;28;19925;-69
2022/03/07 13:28:12;;;;;;;;;;;25.00;22.20;;;;;;5037610;28;19924;-66
2022/03/07 13:30:40;;;;;;;;;;;25.00;22.10;;;;;;5047744;28;20332;-66
2022/03/07 13:33:08;;;;;;;;;;;25.10;21.90;;;;;;5048255;28;19928;-65
2022/03/07 13:35:54;;;;;;;;;;;25.00;21.70;;;;;;5046187;28;19925;-65
2022/03/07 13:38:22;;;;;;;;;;;25.00;21.60;;;;;;5039503;28;20372;-65
2022/03/07 13:40:50;;;;;;;;;;;25.00;21.50;;;;;;5046805;28;20326;-65
2022/03/07 13:43:27;;;;;;;;;;;25.00;21.40;;;;;;5050544;28;19929;-65
2022/03/07 13:46:12;;;;;;;;;;;25.00;21.40;;;;;;5031830;28;19925;-64
2022/03/07 13:48:39;;;;;;;;;;;25.00;21.50;;;;;;5050375;28;20338;-67
2022/03/07 13:51:06;;;;;;;;;;;25.00;21.50;;;;;;5051601;28;19978;-66
2022/03/07 13:53:34;;;;;;;;;;;25.00;21.60;;;;;;5051068;28;19986;-68
2022/03/07 13:56:01;;;;;;;;;;;25.00;21.60;;;;;;5052240;28;19929;-68
2022/03/07 13:58:34;;;;;;;;;;;24.90;21.60;;;;;;5052236;28;19955;-71
2022/03/07 14:01:09;;;;;;;;;;;24.90;21.60;;;;;;5048422;28;19935;-67
2022/03/07 14:03:56;;;;;;;;;;;24.90;21.60;;;;;;5050581;28;19931;-67
2022/03/07 14:06:25;;;;;;;;;;;24.90;21.40;;;;;;5052884;28;19924;-66
2022/03/07 14:08:52;;;;;;;;;;;24.90;21.60;;;;;;5049664;28;19929;-62
2022/03/07 14:11:19;;;;;;;;;;;24.90;21.70;;;;;;5052632;28;19964;-70
2022/03/07 14:13:47;;;;;;;;;;;24.90;21.90;;;;;;5051719;28;20026;-62
2022/03/07 14:16:16;;;;;;;;;;;24.80;22.10;;;;;;5052162;28;19928;-65
2022/03/07 14:18:43;;;;;;;;;;;24.70;22.00;;;;;;5049894;28;20348;-67
2022/03/07 14:21:11;;;;;;;;;;;24.80;22.20;;;;;;5053121;28;19953;-66
2022/03/07 14:23:59;;;;;;;;;;;24.70;22.10;;;;;;5051445;28;20017;-62
2022/03/07 14:26:26;;;;;;;;;;;24.70;22.60;;;;;;5051997;28;20377;-66
2022/03/07 14:28:53;;;;;;;;;;;24.70;22.10;;;;;;5051989;28;19979;-68
2022/03/07 14:31:20;;;;;;;;;;;24.70;22.10;;;;;;5046744;28;20495;-70
2022/03/07 14:33:47;;;;;;;;;;;24.60;22.10;;;;;;5044735;28;19933;-68
2022/03/07 14:36:14;;;;;;;;;;;24.50;22.10;;;;;;5048836;28;20008;-67
2022/03/07 14:38:41;;;;;;;;;;;24.60;22.20;;;;;;5044052;28;19932;-64